Suomigracht — PHBT — position and weather

sailwx.info

Track history (hours):
 
Tides and Currents Weather Stations Pressure Air Temp Water Temp Dewpoint Dewpoint Depression Visibility Wind Speed Wind Dir Waves Ship Positions

Suomigracht

Last reported at 2014-Jul-30 13:32 UTC. Time now 2014-Aug-02 04:42 UTC.
Position N 25°50' W 079°29'.

Length 173 m; beam 26 m.

Type: Cargo ship. MMSI: 246100000.

Date/timePositionNaut miles runAvg speedWind from/ knotsBaromVisibWave heightAir tempDewpointWater temp
2014-Jul-30 13:32N 25°50' W 079°29'1414.1
2014-Jul-30 12:33N 26°04' W 079°28'1413.9
2014-Jul-30 11:33N 26°18' W 079°26'1414.0
2014-Jul-30 10:32N 26°32' W 079°24'1413.9
2014-Jul-30 09:33N 26°46' W 079°23'  
2014-Jul-26 11:25N 38°42' W 074°54'1314.7
2014-Jul-26 10:31N 38°32' W 074°43'2613.5
2014-Jul-26 08:33N 38°25' W 074°11'1514.5
2014-Jul-26 07:32N 38°22' W 073°52'1414.6
2014-Jul-26 06:33N 38°20' W 073°34'1614.8
2014-Jul-26 05:28N 38°19' W 073°14'1414.9
2014-Jul-26 04:32N 38°17' W 072°56'1414.8
2014-Jul-26 03:33N 38°16' W 072°38'1514.9
2014-Jul-26 02:32N 38°14' W 072°18'  
Track history (hours):
 
Tides and Currents Weather Stations Pressure Air Temp Water Temp Dewpoint Dewpoint Depression Visibility Wind Speed Wind Dir Waves Ship Positions

Suomigracht

Last reported at 2014-Jul-30 13:32 UTC. Time now 2014-Aug-02 04:42 UTC.
Position N 25°50' W 079°29'.

Length 173 m; beam 26 m.

Type: Cargo ship. MMSI: 246100000.

Date/timePositionNaut miles runAvg speedWind from/ knotsBaromVisibWave heightAir tempDewpointWater temp
2014-Jul-30 13:32N 25°50' W 079°29'1414.1
2014-Jul-30 12:33N 26°04' W 079°28'1413.9
2014-Jul-30 11:33N 26°18' W 079°26'1414.0
2014-Jul-30 10:32N 26°32' W 079°24'1413.9
2014-Jul-30 09:33N 26°46' W 079°23'  
2014-Jul-26 11:25N 38°42' W 074°54'1314.7
2014-Jul-26 10:31N 38°32' W 074°43'2613.5
2014-Jul-26 08:33N 38°25' W 074°11'1514.5
2014-Jul-26 07:32N 38°22' W 073°52'1414.6
2014-Jul-26 06:33N 38°20' W 073°34'1614.8
2014-Jul-26 05:28N 38°19' W 073°14'1414.9
2014-Jul-26 04:32N 38°17' W 072°56'1414.8
2014-Jul-26 03:33N 38°16' W 072°38'1514.9
2014-Jul-26 02:32N 38°14' W 072°18'  

Dump ship's entire track history